Aviation Digital Data Service (ADDS)

Output produced by METARs form (0611 UTC 16 February 2019)
found at http://www.aviationweather.gov/metar/data/
 
METAR text: KMHV 160540Z AUTO 27012KT 10SM SCT031 SCT036 OVC047 05/02 A2999 RMK A01
Conditions at: KMHV (MOJAVE , CA, US) observed 0540 UTC 16 February 2019
Temperature: 5.0°C (41°F)
Dewpoint: 2.0°C (36°F) [RH = 81%]
Pressure (altimeter): 29.99 inches Hg (1015.7 mb)
Winds: from the W (270 degrees) at 14 MPH (12 knots; 6.2 m/s)
Visibility: 10 or more miles (16+ km)
Ceiling: 4700 feet AGL
Clouds: scattered clouds at 3100 feet AGL
scattered clouds at 3600 feet AGL
overcast cloud deck at 4700 feet AGL
Weather: automated observation with no human augmentation;
there may or may not be significant weather present at this time

METAR text: KMHV 160520Z AUTO 26011KT 10SM BKN030 BKN035 OVC041 05/02 A2998 RMK A01
Conditions at: KMHV (MOJAVE , CA, US) observed 0520 UTC 16 February 2019
Temperature: 5.0°C (41°F)
Dewpoint: 2.0°C (36°F) [RH = 81%]
Pressure (altimeter): 29.98 inches Hg (1015.3 mb)
Winds: from the W (260 degrees) at 13 MPH (11 knots; 5.7 m/s)
Visibility: 10 or more miles (16+ km)
Ceiling: 3000 feet AGL
Clouds: broken clouds at 3000 feet AGL
broken clouds at 3500 feet AGL
overcast cloud deck at 4100 feet AGL
Weather: automated observation with no human augmentation;
there may or may not be significant weather present at this time

METAR text: KMHV 160500Z AUTO 28013G20KT 8SM SCT030 BKN039 OVC048 05/02 A2998 RMK A01
Conditions at: KMHV (MOJAVE , CA, US) observed 0500 UTC 16 February 2019
Temperature: 5.0°C (41°F)
Dewpoint: 2.0°C (36°F) [RH = 81%]
Pressure (altimeter): 29.98 inches Hg (1015.3 mb)
Winds: from the W (280 degrees) at 15 MPH (13 knots; 6.7 m/s)
gusting to 23 MPH (20 knots; 10.3 m/s)
Visibility: 8 miles (13 km)
Ceiling: 3900 feet AGL
Clouds: scattered clouds at 3000 feet AGL
broken clouds at 3900 feet AGL
overcast cloud deck at 4800 feet AGL
Weather: automated observation with no human augmentation;
there may or may not be significant weather present at this time

METAR text: KMHV 160440Z AUTO 29016G22KT 10SM SCT049 BKN065 OVC070 05/01 A2997 RMK A01
Conditions at: KMHV (MOJAVE , CA, US) observed 0440 UTC 16 February 2019
Temperature: 5.0°C (41°F)
Dewpoint: 1.0°C (34°F) [RH = 75%]
Pressure (altimeter): 29.97 inches Hg (1015.0 mb)
Winds: from the WNW (290 degrees) at 18 MPH (16 knots; 8.2 m/s)
gusting to 25 MPH (22 knots; 11.3 m/s)
Visibility: 10 or more miles (16+ km)
Ceiling: 6500 feet AGL
Clouds: scattered clouds at 4900 feet AGL
broken clouds at 6500 feet AGL
overcast cloud deck at 7000 feet AGL
Weather: automated observation with no human augmentation;
there may or may not be significant weather present at this time

METAR text: KMHV 160420Z AUTO 27020KT 10SM SCT055 OVC070 05/01 A2996 RMK A01
Conditions at: KMHV (MOJAVE , CA, US) observed 0420 UTC 16 February 2019
Temperature: 5.0°C (41°F)
Dewpoint: 1.0°C (34°F) [RH = 75%]
Pressure (altimeter): 29.96 inches Hg (1014.6 mb)
Winds: from the W (270 degrees) at 23 MPH (20 knots; 10.3 m/s)
Visibility: 10 or more miles (16+ km)
Ceiling: 7000 feet AGL
Clouds: scattered clouds at 5500 feet AGL
overcast cloud deck at 7000 feet AGL
Weather: automated observation with no human augmentation;
there may or may not be significant weather present at this time

METAR text: KMHV 160400Z AUTO 26017G23KT 10SM OVC065 06/01 A2997 RMK A01
Conditions at: KMHV (MOJAVE , CA, US) observed 0400 UTC 16 February 2019
Temperature: 6.0°C (43°F)
Dewpoint: 1.0°C (34°F) [RH = 70%]
Pressure (altimeter): 29.97 inches Hg (1015.0 mb)
Winds: from the W (260 degrees) at 20 MPH (17 knots; 8.7 m/s)
gusting to 26 MPH (23 knots; 11.8 m/s)
Visibility: 10 or more miles (16+ km)
Ceiling: 6500 feet AGL
Clouds: overcast cloud deck at 6500 feet AGL
Weather: automated observation with no human augmentation;
there may or may not be significant weather present at this time

METAR text: KMHV 160340Z AUTO 24011KT 10SM OVC060 05/02 A2997 RMK A01
Conditions at: KMHV (MOJAVE , CA, US) observed 0340 UTC 16 February 2019
Temperature: 5.0°C (41°F)
Dewpoint: 2.0°C (36°F) [RH = 81%]
Pressure (altimeter): 29.97 inches Hg (1015.0 mb)
Winds: from the WSW (240 degrees) at 13 MPH (11 knots; 5.7 m/s)
Visibility: 10 or more miles (16+ km)
Ceiling: 6000 feet AGL
Clouds: overcast cloud deck at 6000 feet AGL
Weather: automated observation with no human augmentation;
there may or may not be significant weather present at this time

METAR text: KMHV 160320Z AUTO 24013KT 10SM OVC055 05/02 A2997 RMK A01
Conditions at: KMHV (MOJAVE , CA, US) observed 0320 UTC 16 February 2019
Temperature: 5.0°C (41°F)
Dewpoint: 2.0°C (36°F) [RH = 81%]
Pressure (altimeter): 29.97 inches Hg (1015.0 mb)
Winds: from the WSW (240 degrees) at 15 MPH (13 knots; 6.7 m/s)
Visibility: 10 or more miles (16+ km)
Ceiling: 5500 feet AGL
Clouds: overcast cloud deck at 5500 feet AGL
Weather: automated observation with no human augmentation;
there may or may not be significant weather present at this time

METAR text: KMHV 160300Z AUTO 26015G21KT 10SM FEW043 OVC050 05/02 A2997 RMK A01
Conditions at: KMHV (MOJAVE , CA, US) observed 0300 UTC 16 February 2019
Temperature: 5.0°C (41°F)
Dewpoint: 2.0°C (36°F) [RH = 81%]
Pressure (altimeter): 29.97 inches Hg (1015.0 mb)
Winds: from the W (260 degrees) at 17 MPH (15 knots; 7.7 m/s)
gusting to 24 MPH (21 knots; 10.8 m/s)
Visibility: 10 or more miles (16+ km)
Ceiling: 5000 feet AGL
Clouds: few clouds at 4300 feet AGL
overcast cloud deck at 5000 feet AGL
Weather: automated observation with no human augmentation;
there may or may not be significant weather present at this time

METAR text: KMHV 160240Z AUTO 27016G22KT 10SM FEW024 SCT037 BKN044 05/02 A2996 RMK A01
Conditions at: KMHV (MOJAVE , CA, US) observed 0240 UTC 16 February 2019
Temperature: 5.0°C (41°F)
Dewpoint: 2.0°C (36°F) [RH = 81%]
Pressure (altimeter): 29.96 inches Hg (1014.6 mb)
Winds: from the W (270 degrees) at 18 MPH (16 knots; 8.2 m/s)
gusting to 25 MPH (22 knots; 11.3 m/s)
Visibility: 10 or more miles (16+ km)
Ceiling: 4400 feet AGL
Clouds: few clouds at 2400 feet AGL
scattered clouds at 3700 feet AGL
broken clouds at 4400 feet AGL
Weather: automated observation with no human augmentation;
there may or may not be significant weather present at this time

METAR text: KMHV 160220Z AUTO 27015G22KT 9SM SCT024 BKN031 OVC037 05/02 A2996 RMK A01
Conditions at: KMHV (MOJAVE , CA, US) observed 0220 UTC 16 February 2019
Temperature: 5.0°C (41°F)
Dewpoint: 2.0°C (36°F) [RH = 81%]
Pressure (altimeter): 29.96 inches Hg (1014.6 mb)
Winds: from the W (270 degrees) at 17 MPH (15 knots; 7.7 m/s)
gusting to 25 MPH (22 knots; 11.3 m/s)
Visibility: 9 miles (14 km)
Ceiling: 3100 feet AGL
Clouds: scattered clouds at 2400 feet AGL
broken clouds at 3100 feet AGL
overcast cloud deck at 3700 feet AGL
Weather: automated observation with no human augmentation;
there may or may not be significant weather present at this time

METAR text: KMHV 160200Z AUTO 25011G17KT 10SM FEW016 FEW024 OVC032 06/02 A2996 RMK A01 P0002
Conditions at: KMHV (MOJAVE , CA, US) observed 0200 UTC 16 February 2019
Temperature: 6.0°C (43°F)
Dewpoint: 2.0°C (36°F) [RH = 75%]
Pressure (altimeter): 29.96 inches Hg (1014.6 mb)
Winds: from the WSW (250 degrees) at 13 MPH (11 knots; 5.7 m/s)
gusting to 20 MPH (17 knots; 8.7 m/s)
Visibility: 10 or more miles (16+ km)
Ceiling: 3200 feet AGL
Clouds: few clouds at 1600 feet AGL
few clouds at 2400 feet AGL
overcast cloud deck at 3200 feet AGL
Weather: automated observation with no human augmentation;
there may or may not be significant weather present at this time

METAR text: KMHV 160140Z AUTO 27013G22KT 9SM OVC032 06/04 A2995 RMK A01
Conditions at: KMHV (MOJAVE , CA, US) observed 0140 UTC 16 February 2019
Temperature: 6.0°C (43°F)
Dewpoint: 4.0°C (39°F) [RH = 87%]
Pressure (altimeter): 29.95 inches Hg (1014.3 mb)
Winds: from the W (270 degrees) at 15 MPH (13 knots; 6.7 m/s)
gusting to 25 MPH (22 knots; 11.3 m/s)
Visibility: 9 miles (14 km)
Ceiling: 3200 feet AGL
Clouds: overcast cloud deck at 3200 feet AGL
Weather: automated observation with no human augmentation;
there may or may not be significant weather present at this time

METAR text: KMHV 160120Z AUTO 25009KT 3SM BR FEW018 BKN033 OVC039 07/05 A2994 RMK A01
Conditions at: KMHV (MOJAVE , CA, US) observed 0120 UTC 16 February 2019
Temperature: 7.0°C (45°F)
Dewpoint: 5.0°C (41°F) [RH = 87%]
Pressure (altimeter): 29.94 inches Hg (1014.0 mb)
Winds: from the WSW (250 degrees) at 10 MPH (9 knots; 4.6 m/s)
Visibility: 3 miles ( 5 km)
Ceiling: 3300 feet AGL
Clouds: few clouds at 1800 feet AGL
broken clouds at 3300 feet AGL
overcast cloud deck at 3900 feet AGL
Weather: BR  (mist)

METAR text: KMHV 160100Z AUTO 28010KT 2SM BR FEW018 SCT025 OVC032 07/05 A2995 RMK A01 P0002
Conditions at: KMHV (MOJAVE , CA, US) observed 0100 UTC 16 February 2019
Temperature: 7.0°C (45°F)
Dewpoint: 5.0°C (41°F) [RH = 87%]
Pressure (altimeter): 29.95 inches Hg (1014.3 mb)
Winds: from the W (280 degrees) at 12 MPH (10 knots; 5.1 m/s)
Visibility: 2.00 miles (3.22 km)
Ceiling: 3200 feet AGL
Clouds: few clouds at 1800 feet AGL
scattered clouds at 2500 feet AGL
overcast cloud deck at 3200 feet AGL
Weather: BR  (mist)

METAR text: KMHV 160040Z AUTO 25010KT 9SM OVC029 08/04 A2994 RMK A01
Conditions at: KMHV (MOJAVE , CA, US) observed 0040 UTC 16 February 2019
Temperature: 8.0°C (46°F)
Dewpoint: 4.0°C (39°F) [RH = 76%]
Pressure (altimeter): 29.94 inches Hg (1014.0 mb)
Winds: from the WSW (250 degrees) at 12 MPH (10 knots; 5.1 m/s)
Visibility: 9 miles (14 km)
Ceiling: 2900 feet AGL
Clouds: overcast cloud deck at 2900 feet AGL
Weather: automated observation with no human augmentation;
there may or may not be significant weather present at this time

METAR text: KMHV 160020Z AUTO 23009KT 10SM BKN032 OVC040 08/05 A2994 RMK A01
Conditions at: KMHV (MOJAVE , CA, US) observed 0020 UTC 16 February 2019
Temperature: 8.0°C (46°F)
Dewpoint: 5.0°C (41°F) [RH = 81%]
Pressure (altimeter): 29.94 inches Hg (1014.0 mb)
Winds: from the SW (230 degrees) at 10 MPH (9 knots; 4.6 m/s)
Visibility: 10 or more miles (16+ km)
Ceiling: 3200 feet AGL
Clouds: broken clouds at 3200 feet AGL
overcast cloud deck at 4000 feet AGL
Weather: automated observation with no human augmentation;
there may or may not be significant weather present at this time

METAR text: KMHV 160000Z AUTO 24008KT 9SM SCT026 SCT031 OVC037 08/05 A2996 RMK A01
Conditions at: KMHV (MOJAVE , CA, US) observed 0000 UTC 16 February 2019
Temperature: 8.0°C (46°F)
Dewpoint: 5.0°C (41°F) [RH = 81%]
Pressure (altimeter): 29.96 inches Hg (1014.6 mb)
Winds: from the WSW (240 degrees) at 9 MPH (8 knots; 4.1 m/s)
Visibility: 9 miles (14 km)
Ceiling: 3700 feet AGL
Clouds: scattered clouds at 2600 feet AGL
scattered clouds at 3100 feet AGL
overcast cloud deck at 3700 feet AGL
Weather: automated observation with no human augmentation;
there may or may not be significant weather present at this time

METAR text: KMHV 152340Z AUTO 25013KT 6SM HZ BKN025 BKN047 OVC060 08/04 A2997 RMK A01
Conditions at: KMHV (MOJAVE , CA, US) observed 2340 UTC 15 February 2019
Temperature: 8.0°C (46°F)
Dewpoint: 4.0°C (39°F) [RH = 76%]
Pressure (altimeter): 29.97 inches Hg (1015.0 mb)
Winds: from the WSW (250 degrees) at 15 MPH (13 knots; 6.7 m/s)
Visibility: 6 miles (10 km)
Ceiling: 2500 feet AGL
Clouds: broken clouds at 2500 feet AGL
broken clouds at 4700 feet AGL
overcast cloud deck at 6000 feet AGL
Weather: HZ  (haze)

METAR text: KMHV 152320Z AUTO 22013KT 10SM FEW022 SCT031 BKN047 09/05 A2996 RMK A01
Conditions at: KMHV (MOJAVE , CA, US) observed 2320 UTC 15 February 2019
Temperature: 9.0°C (48°F)
Dewpoint: 5.0°C (41°F) [RH = 76%]
Pressure (altimeter): 29.96 inches Hg (1014.6 mb)
Winds: from the SW (220 degrees) at 15 MPH (13 knots; 6.7 m/s)
Visibility: 10 or more miles (16+ km)
Ceiling: 4700 feet AGL
Clouds: few clouds at 2200 feet AGL
scattered clouds at 3100 feet AGL
broken clouds at 4700 feet AGL
Weather: automated observation with no human augmentation;
there may or may not be significant weather present at this time

METAR text: KMHV 152300Z AUTO 25013KT 5SM HZ SCT023 BKN027 OVC039 08/06 A2996 RMK A01 P0001
Conditions at: KMHV (MOJAVE , CA, US) observed 2300 UTC 15 February 2019
Temperature: 8.0°C (46°F)
Dewpoint: 6.0°C (43°F) [RH = 87%]
Pressure (altimeter): 29.96 inches Hg (1014.6 mb)
Winds: from the WSW (250 degrees) at 15 MPH (13 knots; 6.7 m/s)
Visibility: 5 miles ( 8 km)
Ceiling: 2700 feet AGL
Clouds: scattered clouds at 2300 feet AGL
broken clouds at 2700 feet AGL
overcast cloud deck at 3900 feet AGL
Weather: HZ  (haze)

METAR text: KMHV 152240Z AUTO 24014G24KT 4SM HZ FEW022 BKN029 OVC035 08/06 A2997 RMK A01
Conditions at: KMHV (MOJAVE , CA, US) observed 2240 UTC 15 February 2019
Temperature: 8.0°C (46°F)
Dewpoint: 6.0°C (43°F) [RH = 87%]
Pressure (altimeter): 29.97 inches Hg (1015.0 mb)
Winds: from the WSW (240 degrees) at 16 MPH (14 knots; 7.2 m/s)
gusting to 28 MPH (24 knots; 12.3 m/s)
Visibility: 4 miles ( 6 km)
Ceiling: 2900 feet AGL
Clouds: few clouds at 2200 feet AGL
broken clouds at 2900 feet AGL
overcast cloud deck at 3500 feet AGL
Weather: HZ  (haze)

METAR text: KMHV 152220Z AUTO 22018KT 6SM HZ SCT033 BKN040 BKN047 09/05 A2996 RMK A01
Conditions at: KMHV (MOJAVE , CA, US) observed 2220 UTC 15 February 2019
Temperature: 9.0°C (48°F)
Dewpoint: 5.0°C (41°F) [RH = 76%]
Pressure (altimeter): 29.96 inches Hg (1014.6 mb)
Winds: from the SW (220 degrees) at 21 MPH (18 knots; 9.3 m/s)
Visibility: 6 miles (10 km)
Ceiling: 4000 feet AGL
Clouds: scattered clouds at 3300 feet AGL
broken clouds at 4000 feet AGL
broken clouds at 4700 feet AGL
Weather: HZ  (haze)

METAR text: KMHV 152200Z AUTO 21019G25KT 6SM HZ FEW027 BKN033 OVC060 09/05 A2996 RMK A01
Conditions at: KMHV (MOJAVE , CA, US) observed 2200 UTC 15 February 2019
Temperature: 9.0°C (48°F)
Dewpoint: 5.0°C (41°F) [RH = 76%]
Pressure (altimeter): 29.96 inches Hg (1014.6 mb)
Winds: from the SSW (210 degrees) at 22 MPH (19 knots; 9.8 m/s)
gusting to 29 MPH (25 knots; 12.9 m/s)
Visibility: 6 miles (10 km)
Ceiling: 3300 feet AGL
Clouds: few clouds at 2700 feet AGL
broken clouds at 3300 feet AGL
overcast cloud deck at 6000 feet AGL
Weather: HZ  (haze)

METAR text: KMHV 152140Z AUTO 21022G27KT 10SM FEW026 SCT034 BKN060 09/04 A2996 RMK A01
Conditions at: KMHV (MOJAVE , CA, US) observed 2140 UTC 15 February 2019
Temperature: 9.0°C (48°F)
Dewpoint: 4.0°C (39°F) [RH = 71%]
Pressure (altimeter): 29.96 inches Hg (1014.6 mb)
Winds: from the SSW (210 degrees) at 25 MPH (22 knots; 11.3 m/s)
gusting to 31 MPH (27 knots; 13.9 m/s)
Visibility: 10 or more miles (16+ km)
Ceiling: 6000 feet AGL
Clouds: few clouds at 2600 feet AGL
scattered clouds at 3400 feet AGL
broken clouds at 6000 feet AGL
Weather: automated observation with no human augmentation;
there may or may not be significant weather present at this time

METAR text: KMHV 152120Z AUTO 21020G28KT 10SM CLR 10/04 A2997 RMK A01
Conditions at: KMHV (MOJAVE , CA, US) observed 2120 UTC 15 February 2019
Temperature: 10.0°C (50°F)
Dewpoint: 4.0°C (39°F) [RH = 66%]
Pressure (altimeter): 29.97 inches Hg (1015.0 mb)
Winds: from the SSW (210 degrees) at 23 MPH (20 knots; 10.3 m/s)
gusting to 32 MPH (28 knots; 14.4 m/s)
Visibility: 10 or more miles (16+ km)
Ceiling: at least 12,000 feet AGL
Clouds: sky clear below 12,000 feet AGL
Weather: automated observation with no human augmentation;
there may or may not be significant weather present at this time

METAR text: KMHV 152100Z AUTO 21024G29KT 8SM CLR 09/04 A2998 RMK A01
Conditions at: KMHV (MOJAVE , CA, US) observed 2100 UTC 15 February 2019
Temperature: 9.0°C (48°F)
Dewpoint: 4.0°C (39°F) [RH = 71%]
Pressure (altimeter): 29.98 inches Hg (1015.3 mb)
Winds: from the SSW (210 degrees) at 28 MPH (24 knots; 12.3 m/s)
gusting to 33 MPH (29 knots; 14.9 m/s)
Visibility: 8 miles (13 km)
Ceiling: at least 12,000 feet AGL
Clouds: sky clear below 12,000 feet AGL
Weather: automated observation with no human augmentation;
there may or may not be significant weather present at this time

METAR text: KMHV 152040Z AUTO 21024KT 10SM CLR 09/04 A2999 RMK A01
Conditions at: KMHV (MOJAVE , CA, US) observed 2040 UTC 15 February 2019
Temperature: 9.0°C (48°F)
Dewpoint: 4.0°C (39°F) [RH = 71%]
Pressure (altimeter): 29.99 inches Hg (1015.7 mb)
Winds: from the SSW (210 degrees) at 28 MPH (24 knots; 12.3 m/s)
Visibility: 10 or more miles (16+ km)
Ceiling: at least 12,000 feet AGL
Clouds: sky clear below 12,000 feet AGL
Weather: automated observation with no human augmentation;
there may or may not be significant weather present at this time

METAR text: KMHV 152020Z AUTO 23021G27KT 10SM CLR 10/03 A3000 RMK A01
Conditions at: KMHV (MOJAVE , CA, US) observed 2020 UTC 15 February 2019
Temperature: 10.0°C (50°F)
Dewpoint: 3.0°C (37°F) [RH = 62%]
Pressure (altimeter): 30.00 inches Hg (1016.0 mb)
Winds: from the SW (230 degrees) at 24 MPH (21 knots; 10.8 m/s)
gusting to 31 MPH (27 knots; 13.9 m/s)
Visibility: 10 or more miles (16+ km)
Ceiling: at least 12,000 feet AGL
Clouds: sky clear below 12,000 feet AGL
Weather: automated observation with no human augmentation;
there may or may not be significant weather present at this time

METAR text: KMHV 152000Z AUTO 23018G26KT 10SM SCT044 SCT050 10/02 A3001 RMK A01
Conditions at: KMHV (MOJAVE , CA, US) observed 2000 UTC 15 February 2019
Temperature: 10.0°C (50°F)
Dewpoint: 2.0°C (36°F) [RH = 57%]
Pressure (altimeter): 30.01 inches Hg (1016.3 mb)
Winds: from the SW (230 degrees) at 21 MPH (18 knots; 9.3 m/s)
gusting to 30 MPH (26 knots; 13.4 m/s)
Visibility: 10 or more miles (16+ km)
Ceiling: at least 12,000 feet AGL
Clouds: scattered clouds at 4400 feet AGL
scattered clouds at 5000 feet AGL
Weather: automated observation with no human augmentation;
there may or may not be significant weather present at this time

METAR text: KMHV 151940Z AUTO 23020G26KT 10SM BKN047 10/02 A3002 RMK A01
Conditions at: KMHV (MOJAVE , CA, US) observed 1940 UTC 15 February 2019
Temperature: 10.0°C (50°F)
Dewpoint: 2.0°C (36°F) [RH = 57%]
Pressure (altimeter): 30.02 inches Hg (1016.7 mb)
Winds: from the SW (230 degrees) at 23 MPH (20 knots; 10.3 m/s)
gusting to 30 MPH (26 knots; 13.4 m/s)
Visibility: 10 or more miles (16+ km)
Ceiling: 4700 feet AGL
Clouds: broken clouds at 4700 feet AGL
Weather: automated observation with no human augmentation;
there may or may not be significant weather present at this time

METAR text: KMHV 151920Z AUTO 21016G22KT 10SM FEW048 09/03 A3002 RMK A01
Conditions at: KMHV (MOJAVE , CA, US) observed 1920 UTC 15 February 2019
Temperature: 9.0°C (48°F)
Dewpoint: 3.0°C (37°F) [RH = 66%]
Pressure (altimeter): 30.02 inches Hg (1016.7 mb)
Winds: from the SSW (210 degrees) at 18 MPH (16 knots; 8.2 m/s)
gusting to 25 MPH (22 knots; 11.3 m/s)
Visibility: 10 or more miles (16+ km)
Ceiling: at least 12,000 feet AGL
Clouds: few clouds at 4800 feet AGL
Weather: automated observation with no human augmentation;
there may or may not be significant weather present at this time

METAR text: KMHV 151900Z AUTO 20015G20KT 10SM CLR 09/02 A3002 RMK A01
Conditions at: KMHV (MOJAVE , CA, US) observed 1900 UTC 15 February 2019
Temperature: 9.0°C (48°F)
Dewpoint: 2.0°C (36°F) [RH = 61%]
Pressure (altimeter): 30.02 inches Hg (1016.7 mb)
Winds: from the SSW (200 degrees) at 17 MPH (15 knots; 7.7 m/s)
gusting to 23 MPH (20 knots; 10.3 m/s)
Visibility: 10 or more miles (16+ km)
Ceiling: at least 12,000 feet AGL
Clouds: sky clear below 12,000 feet AGL
Weather: automated observation with no human augmentation;
there may or may not be significant weather present at this time

METAR text: KMHV 151840Z AUTO 21015KT 10SM CLR 08/02 A3003 RMK A01
Conditions at: KMHV (MOJAVE , CA, US) observed 1840 UTC 15 February 2019
Temperature: 8.0°C (46°F)
Dewpoint: 2.0°C (36°F) [RH = 66%]
Pressure (altimeter): 30.03 inches Hg (1017.0 mb)
Winds: from the SSW (210 degrees) at 17 MPH (15 knots; 7.7 m/s)
Visibility: 10 or more miles (16+ km)
Ceiling: at least 12,000 feet AGL
Clouds: sky clear below 12,000 feet AGL
Weather: automated observation with no human augmentation;
there may or may not be significant weather present at this time

METAR text: KMHV 151820Z AUTO 20015KT 10SM CLR 07/02 A3002 RMK A01
Conditions at: KMHV (MOJAVE , CA, US) observed 1820 UTC 15 February 2019
Temperature: 7.0°C (45°F)
Dewpoint: 2.0°C (36°F) [RH = 70%]
Pressure (altimeter): 30.02 inches Hg (1016.7 mb)
Winds: from the SSW (200 degrees) at 17 MPH (15 knots; 7.7 m/s)
Visibility: 10 or more miles (16+ km)
Ceiling: at least 12,000 feet AGL
Clouds: sky clear below 12,000 feet AGL
Weather: automated observation with no human augmentation;
there may or may not be significant weather present at this time

METAR text: KMHV 151800Z AUTO 21014KT 10SM CLR 07/02 A3003 RMK A01
Conditions at: KMHV (MOJAVE , CA, US) observed 1800 UTC 15 February 2019
Temperature: 7.0°C (45°F)
Dewpoint: 2.0°C (36°F) [RH = 70%]
Pressure (altimeter): 30.03 inches Hg (1017.0 mb)
Winds: from the SSW (210 degrees) at 16 MPH (14 knots; 7.2 m/s)
Visibility: 10 or more miles (16+ km)
Ceiling: at least 12,000 feet AGL
Clouds: sky clear below 12,000 feet AGL
Weather: automated observation with no human augmentation;
there may or may not be significant weather present at this time

METAR text: KMHV 151740Z AUTO 21014KT 10SM CLR 07/02 A3003 RMK A01
Conditions at: KMHV (MOJAVE , CA, US) observed 1740 UTC 15 February 2019
Temperature: 7.0°C (45°F)
Dewpoint: 2.0°C (36°F) [RH = 70%]
Pressure (altimeter): 30.03 inches Hg (1017.0 mb)
Winds: from the SSW (210 degrees) at 16 MPH (14 knots; 7.2 m/s)
Visibility: 10 or more miles (16+ km)
Ceiling: at least 12,000 feet AGL
Clouds: sky clear below 12,000 feet AGL
Weather: automated observation with no human augmentation;
there may or may not be significant weather present at this time

METAR text: KMHV 151720Z AUTO 20011KT 10SM CLR 06/01 A3002 RMK A01
Conditions at: KMHV (MOJAVE , CA, US) observed 1720 UTC 15 February 2019
Temperature: 6.0°C (43°F)
Dewpoint: 1.0°C (34°F) [RH = 70%]
Pressure (altimeter): 30.02 inches Hg (1016.7 mb)
Winds: from the SSW (200 degrees) at 13 MPH (11 knots; 5.7 m/s)
Visibility: 10 or more miles (16+ km)
Ceiling: at least 12,000 feet AGL
Clouds: sky clear below 12,000 feet AGL
Weather: automated observation with no human augmentation;
there may or may not be significant weather present at this time

METAR text: KMHV 151700Z AUTO 8/16666708KT 10SM CLR 06/00 A3002 RMK A01
Conditions at: KMHV (MOJAVE , CA, US) observed 1700 UTC 15 February 2019
Temperature: 6.0°C (43°F)
Dewpoint: 0.0°C (32°F) [RH = 65%]
Pressure (altimeter): 30.02 inches Hg (1016.7 mb)
Winds: missing
Visibility: 10 or more miles (16+ km)
Ceiling: at least 12,000 feet AGL
Clouds: sky clear below 12,000 feet AGL
Weather: automated observation with no human augmentation;
there may or may not be significant weather present at this time

METAR text: KMHV 151640Z AUTO 21006KT 10SM CLR 05/01 A3002 RMK A01
Conditions at: KMHV (MOJAVE , CA, US) observed 1640 UTC 15 February 2019
Temperature: 5.0°C (41°F)
Dewpoint: 1.0°C (34°F) [RH = 75%]
Pressure (altimeter): 30.02 inches Hg (1016.7 mb)
Winds: from the SSW (210 degrees) at 7 MPH (6 knots; 3.1 m/s)
Visibility: 10 or more miles (16+ km)
Ceiling: at least 12,000 feet AGL
Clouds: sky clear below 12,000 feet AGL
Weather: automated observation with no human augmentation;
there may or may not be significant weather present at this time

METAR text: KMHV 151620Z AUTO 24006KT 10SM CLR 04/00 A3002 RMK A01
Conditions at: KMHV (MOJAVE , CA, US) observed 1620 UTC 15 February 2019
Temperature: 4.0°C (39°F)
Dewpoint: 0.0°C (32°F) [RH = 75%]
Pressure (altimeter): 30.02 inches Hg (1016.7 mb)
Winds: from the WSW (240 degrees) at 7 MPH (6 knots; 3.1 m/s)
Visibility: 10 or more miles (16+ km)
Ceiling: at least 12,000 feet AGL
Clouds: sky clear below 12,000 feet AGL
Weather: automated observation with no human augmentation;
there may or may not be significant weather present at this time

METAR text: KMHV 151600Z AUTO 24007KT 10SM CLR 03/00 A3002 RMK A01
Conditions at: KMHV (MOJAVE , CA, US) observed 1600 UTC 15 February 2019
Temperature: 3.0°C (37°F)
Dewpoint: 0.0°C (32°F) [RH = 81%]
Pressure (altimeter): 30.02 inches Hg (1016.7 mb)
Winds: from the WSW (240 degrees) at 8 MPH (7 knots; 3.6 m/s)
Visibility: 10 or more miles (16+ km)
Ceiling: at least 12,000 feet AGL
Clouds: sky clear below 12,000 feet AGL
Weather: automated observation with no human augmentation;
there may or may not be significant weather present at this time

METAR text: KMHV 151540Z AUTO 23004KT 10SM CLR 03/00 A3001 RMK A01
Conditions at: KMHV (MOJAVE , CA, US) observed 1540 UTC 15 February 2019
Temperature: 3.0°C (37°F)
Dewpoint: 0.0°C (32°F) [RH = 81%]
Pressure (altimeter): 30.01 inches Hg (1016.3 mb)
Winds: from the SW (230 degrees) at 5 MPH (4 knots; 2.1 m/s)
Visibility: 10 or more miles (16+ km)
Ceiling: at least 12,000 feet AGL
Clouds: sky clear below 12,000 feet AGL
Weather: automated observation with no human augmentation;
there may or may not be significant weather present at this time

METAR text: KMHV 151520Z AUTO 21006KT 10SM CLR 03/M00 A3001 RMK A01
Conditions at: KMHV (MOJAVE , CA, US) observed 1520 UTC 15 February 2019
Temperature: 3.0°C (37°F)
Dewpoint: 0.0°C (32°F) [RH = 81%]
Pressure (altimeter): 30.01 inches Hg (1016.3 mb)
Winds: from the SSW (210 degrees) at 7 MPH (6 knots; 3.1 m/s)
Visibility: 10 or more miles (16+ km)
Ceiling: at least 12,000 feet AGL
Clouds: sky clear below 12,000 feet AGL
Weather: automated observation with no human augmentation;
there may or may not be significant weather present at this time

METAR text: KMHV 151500Z AUTO 21008KT 10SM CLR 04/M01 A3000 RMK A01
Conditions at: KMHV (MOJAVE , CA, US) observed 1500 UTC 15 February 2019
Temperature: 4.0°C (39°F)
Dewpoint: -1.0°C (30°F) [RH = 70%]
Pressure (altimeter): 30.00 inches Hg (1016.0 mb)
Winds: from the SSW (210 degrees) at 9 MPH (8 knots; 4.1 m/s)
Visibility: 10 or more miles (16+ km)
Ceiling: at least 12,000 feet AGL
Clouds: sky clear below 12,000 feet AGL
Weather: automated observation with no human augmentation;
there may or may not be significant weather present at this time

METAR text: KMHV 151440Z AUTO 21007KT 10SM CLR 04/M01 A3000 RMK A01
Conditions at: KMHV (MOJAVE , CA, US) observed 1440 UTC 15 February 2019
Temperature: 4.0°C (39°F)
Dewpoint: -1.0°C (30°F) [RH = 70%]
Pressure (altimeter): 30.00 inches Hg (1016.0 mb)
Winds: from the SSW (210 degrees) at 8 MPH (7 knots; 3.6 m/s)
Visibility: 10 or more miles (16+ km)
Ceiling: at least 12,000 feet AGL
Clouds: sky clear below 12,000 feet AGL
Weather: automated observation with no human augmentation;
there may or may not be significant weather present at this time

METAR text: KMHV 151420Z AUTO 22008KT 10SM CLR 05/M00 A3000 RMK A01
Conditions at: KMHV (MOJAVE , CA, US) observed 1420 UTC 15 February 2019
Temperature: 5.0°C (41°F)
Dewpoint: 0.0°C (32°F) [RH = 70%]
Pressure (altimeter): 30.00 inches Hg (1016.0 mb)
Winds: from the SW (220 degrees) at 9 MPH (8 knots; 4.1 m/s)
Visibility: 10 or more miles (16+ km)
Ceiling: at least 12,000 feet AGL
Clouds: sky clear below 12,000 feet AGL
Weather: automated observation with no human augmentation;
there may or may not be significant weather present at this time

METAR text: KMHV 151400Z AUTO 22006G11KT 10SM CLR 04/M00 A3000 RMK A01
Conditions at: KMHV (MOJAVE , CA, US) observed 1400 UTC 15 February 2019
Temperature: 4.0°C (39°F)
Dewpoint: 0.0°C (32°F) [RH = 75%]
Pressure (altimeter): 30.00 inches Hg (1016.0 mb)
Winds: from the SW (220 degrees) at 7 MPH (6 knots; 3.1 m/s)
gusting to 13 MPH (11 knots; 5.7 m/s)
Visibility: 10 or more miles (16+ km)
Ceiling: at least 12,000 feet AGL
Clouds: sky clear below 12,000 feet AGL
Weather: automated observation with no human augmentation;
there may or may not be significant weather present at this time

METAR text: KMHV 151340Z AUTO 25009KT 10SM CLR 04/M00 A2998 RMK A01
Conditions at: KMHV (MOJAVE , CA, US) observed 1340 UTC 15 February 2019
Temperature: 4.0°C (39°F)
Dewpoint: 0.0°C (32°F) [RH = 75%]
Pressure (altimeter): 29.98 inches Hg (1015.3 mb)
Winds: from the WSW (250 degrees) at 10 MPH (9 knots; 4.6 m/s)
Visibility: 10 or more miles (16+ km)
Ceiling: at least 12,000 feet AGL
Clouds: sky clear below 12,000 feet AGL
Weather: automated observation with no human augmentation;
there may or may not be significant weather present at this time

METAR text: KMHV 151320Z AUTO 23008KT 10SM CLR 05/M00 A2998 RMK A01
Conditions at: KMHV (MOJAVE , CA, US) observed 1320 UTC 15 February 2019
Temperature: 5.0°C (41°F)
Dewpoint: 0.0°C (32°F) [RH = 70%]
Pressure (altimeter): 29.98 inches Hg (1015.3 mb)
Winds: from the SW (230 degrees) at 9 MPH (8 knots; 4.1 m/s)
Visibility: 10 or more miles (16+ km)
Ceiling: at least 12,000 feet AGL
Clouds: sky clear below 12,000 feet AGL
Weather: automated observation with no human augmentation;
there may or may not be significant weather present at this time

METAR text: KMHV 151300Z AUTO 30012G19KT 10SM CLR 06/M01 A2997 RMK A01
Conditions at: KMHV (MOJAVE , CA, US) observed 1300 UTC 15 February 2019
Temperature: 6.0°C (43°F)
Dewpoint: -1.0°C (30°F) [RH = 61%]
Pressure (altimeter): 29.97 inches Hg (1015.0 mb)
Winds: from the WNW (300 degrees) at 14 MPH (12 knots; 6.2 m/s)
gusting to 22 MPH (19 knots; 9.8 m/s)
Visibility: 10 or more miles (16+ km)
Ceiling: at least 12,000 feet AGL
Clouds: sky clear below 12,000 feet AGL
Weather: automated observation with no human augmentation;
there may or may not be significant weather present at this time

METAR text: KMHV 151240Z AUTO 27013KT 10SM CLR 05/M00 A2996 RMK A01
Conditions at: KMHV (MOJAVE , CA, US) observed 1240 UTC 15 February 2019
Temperature: 5.0°C (41°F)
Dewpoint: 0.0°C (32°F) [RH = 70%]
Pressure (altimeter): 29.96 inches Hg (1014.6 mb)
Winds: from the W (270 degrees) at 15 MPH (13 knots; 6.7 m/s)
Visibility: 10 or more miles (16+ km)
Ceiling: at least 12,000 feet AGL
Clouds: sky clear below 12,000 feet AGL
Weather: automated observation with no human augmentation;
there may or may not be significant weather present at this time

METAR text: KMHV 151220Z AUTO 27012G21KT 10SM CLR 05/00 A2996 RMK A01
Conditions at: KMHV (MOJAVE , CA, US) observed 1220 UTC 15 February 2019
Temperature: 5.0°C (41°F)
Dewpoint: 0.0°C (32°F) [RH = 70%]
Pressure (altimeter): 29.96 inches Hg (1014.6 mb)
Winds: from the W (270 degrees) at 14 MPH (12 knots; 6.2 m/s)
gusting to 24 MPH (21 knots; 10.8 m/s)
Visibility: 10 or more miles (16+ km)
Ceiling: at least 12,000 feet AGL
Clouds: sky clear below 12,000 feet AGL
Weather: automated observation with no human augmentation;
there may or may not be significant weather present at this time

METAR text: KMHV 151200Z AUTO 26012G20KT 10SM CLR 05/01 A2996 RMK A01
Conditions at: KMHV (MOJAVE , CA, US) observed 1200 UTC 15 February 2019
Temperature: 5.0°C (41°F)
Dewpoint: 1.0°C (34°F) [RH = 75%]
Pressure (altimeter): 29.96 inches Hg (1014.6 mb)
Winds: from the W (260 degrees) at 14 MPH (12 knots; 6.2 m/s)
gusting to 23 MPH (20 knots; 10.3 m/s)
Visibility: 10 or more miles (16+ km)
Ceiling: at least 12,000 feet AGL
Clouds: sky clear below 12,000 feet AGL
Weather: automated observation with no human augmentation;
there may or may not be significant weather present at this time

METAR text: KMHV 151140Z AUTO 27012KT 10SM CLR 05/01 A2996 RMK A01
Conditions at: KMHV (MOJAVE , CA, US) observed 1140 UTC 15 February 2019
Temperature: 5.0°C (41°F)
Dewpoint: 1.0°C (34°F) [RH = 75%]
Pressure (altimeter): 29.96 inches Hg (1014.6 mb)
Winds: from the W (270 degrees) at 14 MPH (12 knots; 6.2 m/s)
Visibility: 10 or more miles (16+ km)
Ceiling: at least 12,000 feet AGL
Clouds: sky clear below 12,000 feet AGL
Weather: automated observation with no human augmentation;
there may or may not be significant weather present at this time

METAR text: KMHV 151120Z AUTO 25007G13KT 10SM CLR 05/01 A2996 RMK A01
Conditions at: KMHV (MOJAVE , CA, US) observed 1120 UTC 15 February 2019
Temperature: 5.0°C (41°F)
Dewpoint: 1.0°C (34°F) [RH = 75%]
Pressure (altimeter): 29.96 inches Hg (1014.6 mb)
Winds: from the WSW (250 degrees) at 8 MPH (7 knots; 3.6 m/s)
gusting to 15 MPH (13 knots; 6.7 m/s)
Visibility: 10 or more miles (16+ km)
Ceiling: at least 12,000 feet AGL
Clouds: sky clear below 12,000 feet AGL
Weather: automated observation with no human augmentation;
there may or may not be significant weather present at this time

METAR text: KMHV 151100Z AUTO 24006KT 10SM CLR 05/01 A2995 RMK A01
Conditions at: KMHV (MOJAVE , CA, US) observed 1100 UTC 15 February 2019
Temperature: 5.0°C (41°F)
Dewpoint: 1.0°C (34°F) [RH = 75%]
Pressure (altimeter): 29.95 inches Hg (1014.3 mb)
Winds: from the WSW (240 degrees) at 7 MPH (6 knots; 3.1 m/s)
Visibility: 10 or more miles (16+ km)
Ceiling: at least 12,000 feet AGL
Clouds: sky clear below 12,000 feet AGL
Weather: automated observation with no human augmentation;
there may or may not be significant weather present at this time

METAR text: KMHV 151040Z AUTO 25010G16KT 10SM CLR 05/01 A2996 RMK A01
Conditions at: KMHV (MOJAVE , CA, US) observed 1040 UTC 15 February 2019
Temperature: 5.0°C (41°F)
Dewpoint: 1.0°C (34°F) [RH = 75%]
Pressure (altimeter): 29.96 inches Hg (1014.6 mb)
Winds: from the WSW (250 degrees) at 12 MPH (10 knots; 5.1 m/s)
gusting to 18 MPH (16 knots; 8.2 m/s)
Visibility: 10 or more miles (16+ km)
Ceiling: at least 12,000 feet AGL
Clouds: sky clear below 12,000 feet AGL
Weather: automated observation with no human augmentation;
there may or may not be significant weather present at this time

METAR text: KMHV 151020Z AUTO 25011KT 10SM FEW037 05/01 A2996 RMK A01
Conditions at: KMHV (MOJAVE , CA, US) observed 1020 UTC 15 February 2019
Temperature: 5.0°C (41°F)
Dewpoint: 1.0°C (34°F) [RH = 75%]
Pressure (altimeter): 29.96 inches Hg (1014.6 mb)
Winds: from the WSW (250 degrees) at 13 MPH (11 knots; 5.7 m/s)
Visibility: 10 or more miles (16+ km)
Ceiling: at least 12,000 feet AGL
Clouds: few clouds at 3700 feet AGL
Weather: automated observation with no human augmentation;
there may or may not be significant weather present at this time

METAR text: KMHV 151000Z AUTO 22011KT 10SM CLR 05/01 A2996 RMK A01
Conditions at: KMHV (MOJAVE , CA, US) observed 1000 UTC 15 February 2019
Temperature: 5.0°C (41°F)
Dewpoint: 1.0°C (34°F) [RH = 75%]
Pressure (altimeter): 29.96 inches Hg (1014.6 mb)
Winds: from the SW (220 degrees) at 13 MPH (11 knots; 5.7 m/s)
Visibility: 10 or more miles (16+ km)
Ceiling: at least 12,000 feet AGL
Clouds: sky clear below 12,000 feet AGL
Weather: automated observation with no human augmentation;
there may or may not be significant weather present at this time

METAR text: KMHV 150940Z AUTO 26009G17KT 10SM CLR 06/01 A2995 RMK A01
Conditions at: KMHV (MOJAVE , CA, US) observed 0940 UTC 15 February 2019
Temperature: 6.0°C (43°F)
Dewpoint: 1.0°C (34°F) [RH = 70%]
Pressure (altimeter): 29.95 inches Hg (1014.3 mb)
Winds: from the W (260 degrees) at 10 MPH (9 knots; 4.6 m/s)
gusting to 20 MPH (17 knots; 8.7 m/s)
Visibility: 10 or more miles (16+ km)
Ceiling: at least 12,000 feet AGL
Clouds: sky clear below 12,000 feet AGL
Weather: automated observation with no human augmentation;
there may or may not be significant weather present at this time

METAR text: KMHV 150920Z AUTO 28011G20KT 10SM CLR 06/00 A2995 RMK A01
Conditions at: KMHV (MOJAVE , CA, US) observed 0920 UTC 15 February 2019
Temperature: 6.0°C (43°F)
Dewpoint: 0.0°C (32°F) [RH = 65%]
Pressure (altimeter): 29.95 inches Hg (1014.3 mb)
Winds: from the W (280 degrees) at 13 MPH (11 knots; 5.7 m/s)
gusting to 23 MPH (20 knots; 10.3 m/s)
Visibility: 10 or more miles (16+ km)
Ceiling: at least 12,000 feet AGL
Clouds: sky clear below 12,000 feet AGL
Weather: automated observation with no human augmentation;
there may or may not be significant weather present at this time

METAR text: KMHV 150900Z AUTO 26014G21KT 10SM FEW033 FEW040 06/01 A2995 RMK A01
Conditions at: KMHV (MOJAVE , CA, US) observed 0900 UTC 15 February 2019
Temperature: 6.0°C (43°F)
Dewpoint: 1.0°C (34°F) [RH = 70%]
Pressure (altimeter): 29.95 inches Hg (1014.3 mb)
Winds: from the W (260 degrees) at 16 MPH (14 knots; 7.2 m/s)
gusting to 24 MPH (21 knots; 10.8 m/s)
Visibility: 10 or more miles (16+ km)
Ceiling: at least 12,000 feet AGL
Clouds: few clouds at 3300 feet AGL
few clouds at 4000 feet AGL
Weather: automated observation with no human augmentation;
there may or may not be significant weather present at this time

METAR text: KMHV 150840Z AUTO 25016KT 10SM FEW031 FEW039 FEW045 06/01 A2995 RMK A01
Conditions at: KMHV (MOJAVE , CA, US) observed 0840 UTC 15 February 2019
Temperature: 6.0°C (43°F)
Dewpoint: 1.0°C (34°F) [RH = 70%]
Pressure (altimeter): 29.95 inches Hg (1014.3 mb)
Winds: from the WSW (250 degrees) at 18 MPH (16 knots; 8.2 m/s)
Visibility: 10 or more miles (16+ km)
Ceiling: at least 12,000 feet AGL
Clouds: few clouds at 3100 feet AGL
few clouds at 3900 feet AGL
few clouds at 4500 feet AGL
Weather: automated observation with no human augmentation;
there may or may not be significant weather present at this time

METAR text: KMHV 150820Z AUTO 26013G19KT 10SM FEW039 FEW045 06/01 A2995 RMK A01
Conditions at: KMHV (MOJAVE , CA, US) observed 0820 UTC 15 February 2019
Temperature: 6.0°C (43°F)
Dewpoint: 1.0°C (34°F) [RH = 70%]
Pressure (altimeter): 29.95 inches Hg (1014.3 mb)
Winds: from the W (260 degrees) at 15 MPH (13 knots; 6.7 m/s)
gusting to 22 MPH (19 knots; 9.8 m/s)
Visibility: 10 or more miles (16+ km)
Ceiling: at least 12,000 feet AGL
Clouds: few clouds at 3900 feet AGL
few clouds at 4500 feet AGL
Weather: automated observation with no human augmentation;
there may or may not be significant weather present at this time

METAR text: KMHV 150800Z AUTO 27016KT 10SM CLR 07/01 A2994 RMK A01
Conditions at: KMHV (MOJAVE , CA, US) observed 0800 UTC 15 February 2019
Temperature: 7.0°C (45°F)
Dewpoint: 1.0°C (34°F) [RH = 66%]
Pressure (altimeter): 29.94 inches Hg (1014.0 mb)
Winds: from the W (270 degrees) at 18 MPH (16 knots; 8.2 m/s)
Visibility: 10 or more miles (16+ km)
Ceiling: at least 12,000 feet AGL
Clouds: sky clear below 12,000 feet AGL
Weather: automated observation with no human augmentation;
there may or may not be significant weather present at this time

METAR text: KMHV 150740Z AUTO 27019KT 10SM CLR 07/01 A2994 RMK A01
Conditions at: KMHV (MOJAVE , CA, US) observed 0740 UTC 15 February 2019
Temperature: 7.0°C (45°F)
Dewpoint: 1.0°C (34°F) [RH = 66%]
Pressure (altimeter): 29.94 inches Hg (1014.0 mb)
Winds: from the W (270 degrees) at 22 MPH (19 knots; 9.8 m/s)
Visibility: 10 or more miles (16+ km)
Ceiling: at least 12,000 feet AGL
Clouds: sky clear below 12,000 feet AGL
Weather: automated observation with no human augmentation;
there may or may not be significant weather present at this time

METAR text: KMHV 150720Z AUTO 27018KT 10SM FEW036 FEW044 FEW100 07/01 A2995 RMK A01
Conditions at: KMHV (MOJAVE , CA, US) observed 0720 UTC 15 February 2019
Temperature: 7.0°C (45°F)
Dewpoint: 1.0°C (34°F) [RH = 66%]
Pressure (altimeter): 29.95 inches Hg (1014.3 mb)
Winds: from the W (270 degrees) at 21 MPH (18 knots; 9.3 m/s)
Visibility: 10 or more miles (16+ km)
Ceiling: at least 12,000 feet AGL
Clouds: few clouds at 3600 feet AGL
few clouds at 4400 feet AGL
few clouds at 10000 feet AGL
Weather: automated observation with no human augmentation;
there may or may not be significant weather present at this time

METAR text: KMHV 150700Z AUTO 25009KT 10SM SCT035 SCT043 SCT100 05/02 A2995 RMK A01
Conditions at: KMHV (MOJAVE , CA, US) observed 0700 UTC 15 February 2019
Temperature: 5.0°C (41°F)
Dewpoint: 2.0°C (36°F) [RH = 81%]
Pressure (altimeter): 29.95 inches Hg (1014.3 mb)
Winds: from the WSW (250 degrees) at 10 MPH (9 knots; 4.6 m/s)
Visibility: 10 or more miles (16+ km)
Ceiling: at least 12,000 feet AGL
Clouds: scattered clouds at 3500 feet AGL
scattered clouds at 4300 feet AGL
scattered clouds at 10000 feet AGL
Weather: automated observation with no human augmentation;
there may or may not be significant weather present at this time

METAR text: KMHV 150640Z AUTO 23012G18KT 10SM SCT033 BKN043 06/02 A2994 RMK A01
Conditions at: KMHV (MOJAVE , CA, US) observed 0640 UTC 15 February 2019
Temperature: 6.0°C (43°F)
Dewpoint: 2.0°C (36°F) [RH = 75%]
Pressure (altimeter): 29.94 inches Hg (1014.0 mb)
Winds: from the SW (230 degrees) at 14 MPH (12 knots; 6.2 m/s)
gusting to 21 MPH (18 knots; 9.3 m/s)
Visibility: 10 or more miles (16+ km)
Ceiling: 4300 feet AGL
Clouds: scattered clouds at 3300 feet AGL
broken clouds at 4300 feet AGL
Weather: automated observation with no human augmentation;
there may or may not be significant weather present at this time

METAR text: KMHV 150620Z AUTO 25010G16KT 10SM FEW032 BKN044 OVC050 07/02 A2993 RMK A01
Conditions at: KMHV (MOJAVE , CA, US) observed 0620 UTC 15 February 2019
Temperature: 7.0°C (45°F)
Dewpoint: 2.0°C (36°F) [RH = 70%]
Pressure (altimeter): 29.93 inches Hg (1013.6 mb)
Winds: from the WSW (250 degrees) at 12 MPH (10 knots; 5.1 m/s)
gusting to 18 MPH (16 knots; 8.2 m/s)
Visibility: 10 or more miles (16+ km)
Ceiling: 4400 feet AGL
Clouds: few clouds at 3200 feet AGL
broken clouds at 4400 feet AGL
overcast cloud deck at 5000 feet AGL
Weather: automated observation with no human augmentation;
there may or may not be significant weather present at this time

METAR text: KMHV 150600Z AUTO 20007KT 10SM FEW021 SCT030 BKN040 07/02 A2993 RMK A01
Conditions at: KMHV (MOJAVE , CA, US) observed 0600 UTC 15 February 2019
Temperature: 7.0°C (45°F)
Dewpoint: 2.0°C (36°F) [RH = 70%]
Pressure (altimeter): 29.93 inches Hg (1013.6 mb)
Winds: from the SSW (200 degrees) at 8 MPH (7 knots; 3.6 m/s)
Visibility: 10 or more miles (16+ km)
Ceiling: 4000 feet AGL
Clouds: few clouds at 2100 feet AGL
scattered clouds at 3000 feet AGL
broken clouds at 4000 feet AGL
Weather: automated observation with no human augmentation;
there may or may not be significant weather present at this time

METAR text: KMHV 150540Z AUTO 25012G18KT 10SM SCT019 BKN032 OVC044 08/02 A2991 RMK A01
Conditions at: KMHV (MOJAVE , CA, US) observed 0540 UTC 15 February 2019
Temperature: 8.0°C (46°F)
Dewpoint: 2.0°C (36°F) [RH = 66%]
Pressure (altimeter): 29.91 inches Hg (1013.0 mb)
Winds: from the WSW (250 degrees) at 14 MPH (12 knots; 6.2 m/s)
gusting to 21 MPH (18 knots; 9.3 m/s)
Visibility: 10 or more miles (16+ km)
Ceiling: 3200 feet AGL
Clouds: scattered clouds at 1900 feet AGL
broken clouds at 3200 feet AGL
overcast cloud deck at 4400 feet AGL
Weather: automated observation with no human augmentation;
there may or may not be significant weather present at this time

METAR text: KMHV 150520Z AUTO 25017KT 10SM FEW014 SCT037 BKN045 08/02 A2991 RMK A01
Conditions at: KMHV (MOJAVE , CA, US) observed 0520 UTC 15 February 2019
Temperature: 8.0°C (46°F)
Dewpoint: 2.0°C (36°F) [RH = 66%]
Pressure (altimeter): 29.91 inches Hg (1013.0 mb)
Winds: from the WSW (250 degrees) at 20 MPH (17 knots; 8.7 m/s)
Visibility: 10 or more miles (16+ km)
Ceiling: 4500 feet AGL
Clouds: few clouds at 1400 feet AGL
scattered clouds at 3700 feet AGL
broken clouds at 4500 feet AGL
Weather: automated observation with no human augmentation;
there may or may not be significant weather present at this time

METAR text: KMHV 150500Z AUTO 26016KT 10SM OVC045 08/02 A2991 RMK A01
Conditions at: KMHV (MOJAVE , CA, US) observed 0500 UTC 15 February 2019
Temperature: 8.0°C (46°F)
Dewpoint: 2.0°C (36°F) [RH = 66%]
Pressure (altimeter): 29.91 inches Hg (1013.0 mb)
Winds: from the W (260 degrees) at 18 MPH (16 knots; 8.2 m/s)
Visibility: 10 or more miles (16+ km)
Ceiling: 4500 feet AGL
Clouds: overcast cloud deck at 4500 feet AGL
Weather: automated observation with no human augmentation;
there may or may not be significant weather present at this time

METAR text: KMHV 150440Z AUTO 24009KT 10SM FEW037 BKN044 OVC049 08/02 A2990 RMK A01
Conditions at: KMHV (MOJAVE , CA, US) observed 0440 UTC 15 February 2019
Temperature: 8.0°C (46°F)
Dewpoint: 2.0°C (36°F) [RH = 66%]
Pressure (altimeter): 29.90 inches Hg (1012.6 mb)
Winds: from the WSW (240 degrees) at 10 MPH (9 knots; 4.6 m/s)
Visibility: 10 or more miles (16+ km)
Ceiling: 4400 feet AGL
Clouds: few clouds at 3700 feet AGL
broken clouds at 4400 feet AGL
overcast cloud deck at 4900 feet AGL
Weather: automated observation with no human augmentation;
there may or may not be significant weather present at this time

METAR text: KMHV 150420Z AUTO 25011KT 10SM FEW037 OVC046 08/02 A2988 RMK A01
Conditions at: KMHV (MOJAVE , CA, US) observed 0420 UTC 15 February 2019
Temperature: 8.0°C (46°F)
Dewpoint: 2.0°C (36°F) [RH = 66%]
Pressure (altimeter): 29.88 inches Hg (1011.9 mb)
Winds: from the WSW (250 degrees) at 13 MPH (11 knots; 5.7 m/s)
Visibility: 10 or more miles (16+ km)
Ceiling: 4600 feet AGL
Clouds: few clouds at 3700 feet AGL
overcast cloud deck at 4600 feet AGL
Weather: automated observation with no human augmentation;
there may or may not be significant weather present at this time

METAR text: KMHV 150400Z AUTO 25010G22KT 10SM SCT036 OVC045 08/02 A2988 RMK A01
Conditions at: KMHV (MOJAVE , CA, US) observed 0400 UTC 15 February 2019
Temperature: 8.0°C (46°F)
Dewpoint: 2.0°C (36°F) [RH = 66%]
Pressure (altimeter): 29.88 inches Hg (1011.9 mb)
Winds: from the WSW (250 degrees) at 12 MPH (10 knots; 5.1 m/s)
gusting to 25 MPH (22 knots; 11.3 m/s)
Visibility: 10 or more miles (16+ km)
Ceiling: 4500 feet AGL
Clouds: scattered clouds at 3600 feet AGL
overcast cloud deck at 4500 feet AGL
Weather: automated observation with no human augmentation;
there may or may not be significant weather present at this time

METAR text: KMHV 150340Z AUTO 24014G21KT 10SM OVC036 09/02 A2987 RMK A01
Conditions at: KMHV (MOJAVE , CA, US) observed 0340 UTC 15 February 2019
Temperature: 9.0°C (48°F)
Dewpoint: 2.0°C (36°F) [RH = 61%]
Pressure (altimeter): 29.87 inches Hg (1011.6 mb)
Winds: from the WSW (240 degrees) at 16 MPH (14 knots; 7.2 m/s)
gusting to 24 MPH (21 knots; 10.8 m/s)
Visibility: 10 or more miles (16+ km)
Ceiling: 3600 feet AGL
Clouds: overcast cloud deck at 3600 feet AGL
Weather: automated observation with no human augmentation;
there may or may not be significant weather present at this time

METAR text: KMHV 150320Z AUTO 24011KT 10SM BKN038 OVC044 09/02 A2985 RMK A01
Conditions at: KMHV (MOJAVE , CA, US) observed 0320 UTC 15 February 2019
Temperature: 9.0°C (48°F)
Dewpoint: 2.0°C (36°F) [RH = 61%]
Pressure (altimeter): 29.85 inches Hg (1010.9 mb)
Winds: from the WSW (240 degrees) at 13 MPH (11 knots; 5.7 m/s)
Visibility: 10 or more miles (16+ km)
Ceiling: 3800 feet AGL
Clouds: broken clouds at 3800 feet AGL
overcast cloud deck at 4400 feet AGL
Weather: automated observation with no human augmentation;
there may or may not be significant weather present at this time

METAR text: KMHV 150300Z AUTO 25016G24KT 10SM BKN042 BKN048 09/02 A2982 RMK A01
Conditions at: KMHV (MOJAVE , CA, US) observed 0300 UTC 15 February 2019
Temperature: 9.0°C (48°F)
Dewpoint: 2.0°C (36°F) [RH = 61%]
Pressure (altimeter): 29.82 inches Hg (1009.9 mb)
Winds: from the WSW (250 degrees) at 18 MPH (16 knots; 8.2 m/s)
gusting to 28 MPH (24 knots; 12.3 m/s)
Visibility: 10 or more miles (16+ km)
Ceiling: 4200 feet AGL
Clouds: broken clouds at 4200 feet AGL
broken clouds at 4800 feet AGL
Weather: automated observation with no human augmentation;
there may or may not be significant weather present at this time

METAR text: KMHV 150240Z AUTO 25020G26KT 10SM SCT042 SCT048 08/02 A2981 RMK A01
Conditions at: KMHV (MOJAVE , CA, US) observed 0240 UTC 15 February 2019
Temperature: 8.0°C (46°F)
Dewpoint: 2.0°C (36°F) [RH = 66%]
Pressure (altimeter): 29.81 inches Hg (1009.6 mb)
Winds: from the WSW (250 degrees) at 23 MPH (20 knots; 10.3 m/s)
gusting to 30 MPH (26 knots; 13.4 m/s)
Visibility: 10 or more miles (16+ km)
Ceiling: at least 12,000 feet AGL
Clouds: scattered clouds at 4200 feet AGL
scattered clouds at 4800 feet AGL
Weather: automated observation with no human augmentation;
there may or may not be significant weather present at this time

METAR text: KMHV 150220Z AUTO 25016G26KT 10SM FEW036 FEW045 09/02 A2981 RMK A01
Conditions at: KMHV (MOJAVE , CA, US) observed 0220 UTC 15 February 2019
Temperature: 9.0°C (48°F)
Dewpoint: 2.0°C (36°F) [RH = 61%]
Pressure (altimeter): 29.81 inches Hg (1009.6 mb)
Winds: from the WSW (250 degrees) at 18 MPH (16 knots; 8.2 m/s)
gusting to 30 MPH (26 knots; 13.4 m/s)
Visibility: 10 or more miles (16+ km)
Ceiling: at least 12,000 feet AGL
Clouds: few clouds at 3600 feet AGL
few clouds at 4500 feet AGL
Weather: automated observation with no human augmentation;
there may or may not be significant weather present at this time

METAR text: KMHV 150200Z AUTO 27026G32KT 10SM CLR 09/02 A2979 RMK A01
Conditions at: KMHV (MOJAVE , CA, US) observed 0200 UTC 15 February 2019
Temperature: 9.0°C (48°F)
Dewpoint: 2.0°C (36°F) [RH = 61%]
Pressure (altimeter): 29.79 inches Hg (1008.9 mb)
Winds: from the W (270 degrees) at 30 MPH (26 knots; 13.4 m/s)
gusting to 37 MPH (32 knots; 16.5 m/s)
Visibility: 10 or more miles (16+ km)
Ceiling: at least 12,000 feet AGL
Clouds: sky clear below 12,000 feet AGL
Weather: automated observation with no human augmentation;
there may or may not be significant weather present at this time

METAR text: KMHV 150140Z AUTO 27029G34KT 10SM CLR 09/01 A2975 RMK A01
Conditions at: KMHV (MOJAVE , CA, US) observed 0140 UTC 15 February 2019
Temperature: 9.0°C (48°F)
Dewpoint: 1.0°C (34°F) [RH = 57%]
Pressure (altimeter): 29.75 inches Hg (1007.5 mb)
Winds: from the W (270 degrees) at 33 MPH (29 knots; 14.9 m/s)
gusting to 39 MPH (34 knots; 17.5 m/s)
Visibility: 10 or more miles (16+ km)
Ceiling: at least 12,000 feet AGL
Clouds: sky clear below 12,000 feet AGL
Weather: automated observation with no human augmentation;
there may or may not be significant weather present at this time

METAR text: KMHV 150120Z AUTO 28024G33KT 10SM CLR 09/01 A2975 RMK A01
Conditions at: KMHV (MOJAVE , CA, US) observed 0120 UTC 15 February 2019
Temperature: 9.0°C (48°F)
Dewpoint: 1.0°C (34°F) [RH = 57%]
Pressure (altimeter): 29.75 inches Hg (1007.5 mb)
Winds: from the W (280 degrees) at 28 MPH (24 knots; 12.3 m/s)
gusting to 38 MPH (33 knots; 17.0 m/s)
Visibility: 10 or more miles (16+ km)
Ceiling: at least 12,000 feet AGL
Clouds: sky clear below 12,000 feet AGL
Weather: automated observation with no human augmentation;
there may or may not be significant weather present at this time

METAR text: KMHV 150100Z AUTO 28018G27KT 10SM FEW060 10/03 A2974 RMK A01
Conditions at: KMHV (MOJAVE , CA, US) observed 0100 UTC 15 February 2019
Temperature: 10.0°C (50°F)
Dewpoint: 3.0°C (37°F) [RH = 62%]
Pressure (altimeter): 29.74 inches Hg (1007.2 mb)
Winds: from the W (280 degrees) at 21 MPH (18 knots; 9.3 m/s)
gusting to 31 MPH (27 knots; 13.9 m/s)
Visibility: 10 or more miles (16+ km)
Ceiling: at least 12,000 feet AGL
Clouds: few clouds at 6000 feet AGL
Weather: automated observation with no human augmentation;
there may or may not be significant weather present at this time

METAR text: KMHV 150040Z AUTO 27018KT 10SM FEW065 FEW080 10/03 A2973 RMK A01
Conditions at: KMHV (MOJAVE , CA, US) observed 0040 UTC 15 February 2019
Temperature: 10.0°C (50°F)
Dewpoint: 3.0°C (37°F) [RH = 62%]
Pressure (altimeter): 29.73 inches Hg (1006.9 mb)
Winds: from the W (270 degrees) at 21 MPH (18 knots; 9.3 m/s)
Visibility: 10 or more miles (16+ km)
Ceiling: at least 12,000 feet AGL
Clouds: few clouds at 6500 feet AGL
few clouds at 8000 feet AGL
Weather: automated observation with no human augmentation;
there may or may not be significant weather present at this time

METAR text: KMHV 150020Z AUTO 27022G32KT 10SM FEW044 SCT050 BKN065 11/04 A2972 RMK A01
Conditions at: KMHV (MOJAVE , CA, US) observed 0020 UTC 15 February 2019
Temperature: 11.0°C (52°F)
Dewpoint: 4.0°C (39°F) [RH = 62%]
Pressure (altimeter): 29.72 inches Hg (1006.5 mb)
Winds: from the W (270 degrees) at 25 MPH (22 knots; 11.3 m/s)
gusting to 37 MPH (32 knots; 16.5 m/s)
Visibility: 10 or more miles (16+ km)
Ceiling: 6500 feet AGL
Clouds: few clouds at 4400 feet AGL
scattered clouds at 5000 feet AGL
broken clouds at 6500 feet AGL
Weather: automated observation with no human augmentation;
there may or may not be significant weather present at this time

METAR text: KMHV 150000Z AUTO 25019G27KT 6SM HZ FEW043 SCT049 BKN060 11/05 A2970 RMK A01
Conditions at: KMHV (MOJAVE , CA, US) observed 0000 UTC 15 February 2019
Temperature: 11.0°C (52°F)
Dewpoint: 5.0°C (41°F) [RH = 66%]
Pressure (altimeter): 29.70 inches Hg (1005.8 mb)
Winds: from the WSW (250 degrees) at 22 MPH (19 knots; 9.8 m/s)
gusting to 31 MPH (27 knots; 13.9 m/s)
Visibility: 6 miles (10 km)
Ceiling: 6000 feet AGL
Clouds: few clouds at 4300 feet AGL
scattered clouds at 4900 feet AGL
broken clouds at 6000 feet AGL
Weather: HZ  (haze)

METAR text: KMHV 142340Z AUTO 27023G33KT 10SM SCT060 SCT070 12/05 A2967 RMK A01
Conditions at: KMHV (MOJAVE , CA, US) observed 2340 UTC 14 February 2019
Temperature: 12.0°C (54°F)
Dewpoint: 5.0°C (41°F) [RH = 62%]
Pressure (altimeter): 29.67 inches Hg (1004.8 mb)
Winds: from the W (270 degrees) at 26 MPH (23 knots; 11.8 m/s)
gusting to 38 MPH (33 knots; 17.0 m/s)
Visibility: 10 or more miles (16+ km)
Ceiling: at least 12,000 feet AGL
Clouds: scattered clouds at 6000 feet AGL
scattered clouds at 7000 feet AGL
Weather: automated observation with no human augmentation;
there may or may not be significant weather present at this time

METAR text: KMHV 142320Z AUTO 22025G34KT 10SM CLR 14/05 A2964 RMK A01
Conditions at: KMHV (MOJAVE , CA, US) observed 2320 UTC 14 February 2019
Temperature: 14.0°C (57°F)
Dewpoint: 5.0°C (41°F) [RH = 55%]
Pressure (altimeter): 29.64 inches Hg (1003.8 mb)
Winds: from the SW (220 degrees) at 29 MPH (25 knots; 12.9 m/s)
gusting to 39 MPH (34 knots; 17.5 m/s)
Visibility: 10 or more miles (16+ km)
Ceiling: at least 12,000 feet AGL
Clouds: sky clear below 12,000 feet AGL
Weather: automated observation with no human augmentation;
there may or may not be significant weather present at this time

METAR text: KMHV 142300Z AUTO 20023G34KT 10SM CLR 13/07 A2965 RMK A01
Conditions at: KMHV (MOJAVE , CA, US) observed 2300 UTC 14 February 2019
Temperature: 13.0°C (55°F)
Dewpoint: 7.0°C (45°F) [RH = 67%]
Pressure (altimeter): 29.65 inches Hg (1004.1 mb)
Winds: from the SSW (200 degrees) at 26 MPH (23 knots; 11.8 m/s)
gusting to 39 MPH (34 knots; 17.5 m/s)
Visibility: 10 or more miles (16+ km)
Ceiling: at least 12,000 feet AGL
Clouds: sky clear below 12,000 feet AGL
Weather: automated observation with no human augmentation;
there may or may not be significant weather present at this time

METAR text: KMHV 142240Z AUTO 21026G33KT 10SM CLR 13/07 A2965 RMK A01
Conditions at: KMHV (MOJAVE , CA, US) observed 2240 UTC 14 February 2019
Temperature: 13.0°C (55°F)
Dewpoint: 7.0°C (45°F) [RH = 67%]
Pressure (altimeter): 29.65 inches Hg (1004.1 mb)
Winds: from the SSW (210 degrees) at 30 MPH (26 knots; 13.4 m/s)
gusting to 38 MPH (33 knots; 17.0 m/s)
Visibility: 10 or more miles (16+ km)
Ceiling: at least 12,000 feet AGL
Clouds: sky clear below 12,000 feet AGL
Weather: automated observation with no human augmentation;
there may or may not be significant weather present at this time

METAR text: KMHV 142220Z AUTO 21027G33KT 10SM CLR 13/07 A2965 RMK A01
Conditions at: KMHV (MOJAVE , CA, US) observed 2220 UTC 14 February 2019
Temperature: 13.0°C (55°F)
Dewpoint: 7.0°C (45°F) [RH = 67%]
Pressure (altimeter): 29.65 inches Hg (1004.1 mb)
Winds: from the SSW (210 degrees) at 31 MPH (27 knots; 13.9 m/s)
gusting to 38 MPH (33 knots; 17.0 m/s)
Visibility: 10 or more miles (16+ km)
Ceiling: at least 12,000 feet AGL
Clouds: sky clear below 12,000 feet AGL
Weather: automated observation with no human augmentation;
there may or may not be significant weather present at this time

METAR text: KMHV 142200Z AUTO 21021G34KT 10SM FEW070 13/07 A2965 RMK A01
Conditions at: KMHV (MOJAVE , CA, US) observed 2200 UTC 14 February 2019
Temperature: 13.0°C (55°F)
Dewpoint: 7.0°C (45°F) [RH = 67%]
Pressure (altimeter): 29.65 inches Hg (1004.1 mb)
Winds: from the SSW (210 degrees) at 24 MPH (21 knots; 10.8 m/s)
gusting to 39 MPH (34 knots; 17.5 m/s)
Visibility: 10 or more miles (16+ km)
Ceiling: at least 12,000 feet AGL
Clouds: few clouds at 7000 feet AGL
Weather: automated observation with no human augmentation;
there may or may not be significant weather present at this time

METAR text: KMHV 142140Z AUTO 20024G32KT 10SM FEW070 BKN095 BKN120 14/06 A2964 RMK A01
Conditions at: KMHV (MOJAVE , CA, US) observed 2140 UTC 14 February 2019
Temperature: 14.0°C (57°F)
Dewpoint: 6.0°C (43°F) [RH = 58%]
Pressure (altimeter): 29.64 inches Hg (1003.8 mb)
Winds: from the SSW (200 degrees) at 28 MPH (24 knots; 12.3 m/s)
gusting to 37 MPH (32 knots; 16.5 m/s)
Visibility: 10 or more miles (16+ km)
Ceiling: 9500 feet AGL
Clouds: few clouds at 7000 feet AGL
broken clouds at 9500 feet AGL
broken clouds at 12000 feet AGL
Weather: automated observation with no human augmentation;
there may or may not be significant weather present at this time

METAR text: KMHV 142120Z AUTO 21023G32KT 10SM OVC095 14/05 A2965 RMK A01
Conditions at: KMHV (MOJAVE , CA, US) observed 2120 UTC 14 February 2019
Temperature: 14.0°C (57°F)
Dewpoint: 5.0°C (41°F) [RH = 55%]
Pressure (altimeter): 29.65 inches Hg (1004.1 mb)
Winds: from the SSW (210 degrees) at 26 MPH (23 knots; 11.8 m/s)
gusting to 37 MPH (32 knots; 16.5 m/s)
Visibility: 10 or more miles (16+ km)
Ceiling: 9500 feet AGL
Clouds: overcast cloud deck at 9500 feet AGL
Weather: automated observation with no human augmentation;
there may or may not be significant weather present at this time

METAR text: KMHV 142100Z AUTO 22019G27KT 10SM OVC095 15/04 A2966 RMK A01
Conditions at: KMHV (MOJAVE , CA, US) observed 2100 UTC 14 February 2019
Temperature: 15.0°C (59°F)
Dewpoint: 4.0°C (39°F) [RH = 48%]
Pressure (altimeter): 29.66 inches Hg (1004.5 mb)
Winds: from the SW (220 degrees) at 22 MPH (19 knots; 9.8 m/s)
gusting to 31 MPH (27 knots; 13.9 m/s)
Visibility: 10 or more miles (16+ km)
Ceiling: 9500 feet AGL
Clouds: overcast cloud deck at 9500 feet AGL
Weather: automated observation with no human augmentation;
there may or may not be significant weather present at this time

METAR text: KMHV 142040Z AUTO 23020G31KT 10SM OVC095 15/05 A2967 RMK A01
Conditions at: KMHV (MOJAVE , CA, US) observed 2040 UTC 14 February 2019
Temperature: 15.0°C (59°F)
Dewpoint: 5.0°C (41°F) [RH = 51%]
Pressure (altimeter): 29.67 inches Hg (1004.8 mb)
Winds: from the SW (230 degrees) at 23 MPH (20 knots; 10.3 m/s)
gusting to 36 MPH (31 knots; 15.9 m/s)
Visibility: 10 or more miles (16+ km)
Ceiling: 9500 feet AGL
Clouds: overcast cloud deck at 9500 feet AGL
Weather: automated observation with no human augmentation;
there may or may not be significant weather present at this time

METAR text: KMHV 142020Z AUTO 23014G25KT 10SM SCT100 BKN120 15/09 A2966 RMK A01
Conditions at: KMHV (MOJAVE , CA, US) observed 2020 UTC 14 February 2019
Temperature: 15.0°C (59°F)
Dewpoint: 9.0°C (48°F) [RH = 67%]
Pressure (altimeter): 29.66 inches Hg (1004.5 mb)
Winds: from the SW (230 degrees) at 16 MPH (14 knots; 7.2 m/s)
gusting to 29 MPH (25 knots; 12.9 m/s)
Visibility: 10 or more miles (16+ km)
Ceiling: 12000 feet AGL
Clouds: scattered clouds at 10000 feet AGL
broken clouds at 12000 feet AGL
Weather: automated observation with no human augmentation;
there may or may not be significant weather present at this time

METAR text: KMHV 142000Z AUTO 23022G36KT 10SM FEW050 SCT065 15/09 A2965 RMK A01
Conditions at: KMHV (MOJAVE , CA, US) observed 2000 UTC 14 February 2019
Temperature: 15.0°C (59°F)
Dewpoint: 9.0°C (48°F) [RH = 67%]
Pressure (altimeter): 29.65 inches Hg (1004.1 mb)
Winds: from the SW (230 degrees) at 25 MPH (22 knots; 11.3 m/s)
gusting to 41 MPH (36 knots; 18.5 m/s)
Visibility: 10 or more miles (16+ km)
Ceiling: at least 12,000 feet AGL
Clouds: few clouds at 5000 feet AGL
scattered clouds at 6500 feet AGL
Weather: automated observation with no human augmentation;
there may or may not be significant weather present at this time

METAR text: KMHV 141940Z AUTO 21017KT 10SM FEW050 SCT065 SCT080 12/12 A2966 RMK A01
Conditions at: KMHV (MOJAVE , CA, US) observed 1940 UTC 14 February 2019
Temperature: 12.0°C (54°F)
Dewpoint: 12.0°C (54°F) [RH = 100%]
Pressure (altimeter): 29.66 inches Hg (1004.5 mb)
Winds: from the SSW (210 degrees) at 20 MPH (17 knots; 8.7 m/s)
Visibility: 10 or more miles (16+ km)
Ceiling: at least 12,000 feet AGL
Clouds: few clouds at 5000 feet AGL
scattered clouds at 6500 feet AGL
scattered clouds at 8000 feet AGL
Weather: automated observation with no human augmentation;
there may or may not be significant weather present at this time

METAR text: KMHV 141920Z AUTO 00000KT 10SM FEW065 FEW080 08/08 A2968 RMK A01
Conditions at: KMHV (MOJAVE , CA, US) observed 1920 UTC 14 February 2019
Temperature: 8.0°C (46°F)
Dewpoint: 8.0°C (46°F) [RH = 100%]
Pressure (altimeter): 29.68 inches Hg (1005.2 mb)
Winds: calm
Visibility: 10 or more miles (16+ km)
Ceiling: at least 12,000 feet AGL
Clouds: few clouds at 6500 feet AGL
few clouds at 8000 feet AGL
Weather: automated observation with no human augmentation;
there may or may not be significant weather present at this time

METAR text: KMHV 141900Z AUTO 00000KT 7SM FEW010 SCT027 BKN033 08/08 A2969 RMK A01 P0011
Conditions at: KMHV (MOJAVE , CA, US) observed 1900 UTC 14 February 2019
Temperature: 8.0°C (46°F)
Dewpoint: 8.0°C (46°F) [RH = 100%]
Pressure (altimeter): 29.69 inches Hg (1005.5 mb)
Winds: calm
Visibility: 7 miles (11 km)
Ceiling: 3300 feet AGL
Clouds: few clouds at 1000 feet AGL
scattered clouds at 2700 feet AGL
broken clouds at 3300 feet AGL
Weather: automated observation with no human augmentation;
there may or may not be significant weather present at this time

METAR text: KMHV 141840Z AUTO 31003KT 2 1/2SM BR BKN011 BKN025 OVC030 08/08 A2972 RMK A01
Conditions at: KMHV (MOJAVE , CA, US) observed 1840 UTC 14 February 2019
Temperature: 8.0°C (46°F)
Dewpoint: 8.0°C (46°F) [RH = 100%]
Pressure (altimeter): 29.72 inches Hg (1006.5 mb)
Winds: from the NW (310 degrees) at 3 MPH (3 knots; 1.5 m/s)
Visibility: 2.50 miles (4.02 km)
Ceiling: 1100 feet AGL
Clouds: broken clouds at 1100 feet AGL
broken clouds at 2500 feet AGL
overcast cloud deck at 3000 feet AGL
Weather: BR  (mist)

METAR text: KMHV 141820Z AUTO 06003KT 2SM BR BKN010 OVC013 07/07 A2970 RMK A01
Conditions at: KMHV (MOJAVE , CA, US) observed 1820 UTC 14 February 2019
Temperature: 7.0°C (45°F)
Dewpoint: 7.0°C (45°F) [RH = 100%]
Pressure (altimeter): 29.70 inches Hg (1005.8 mb)
Winds: from the ENE (60 degrees) at 3 MPH (3 knots; 1.5 m/s)
Visibility: 2.00 miles (3.22 km)
Ceiling: 1000 feet AGL
Clouds: broken clouds at 1000 feet AGL
overcast cloud deck at 1300 feet AGL
Weather: BR  (mist)